createdAt,value
2018-02-21T00:00:28.085Z,-4.11
2018-02-21T00:01:28.125Z,-4.16
2018-02-21T00:02:28.113Z,-4.16
2018-02-21T00:03:28.143Z,-4.17
2018-02-21T00:04:28.190Z,-4.19
2018-02-21T00:05:28.152Z,-4.45
2018-02-21T00:06:28.124Z,-4.42
2018-02-21T00:07:28.134Z,-4.43
2018-02-21T00:08:28.130Z,-4.37
2018-02-21T00:09:28.137Z,-4.31
2018-02-21T00:10:28.154Z,-4.32
2018-02-21T00:11:28.611Z,-4.27
2018-02-21T00:12:28.172Z,-4.26
2018-02-21T00:13:28.334Z,-4.17
2018-02-21T00:14:28.157Z,-4.25
2018-02-21T00:15:28.151Z,-4.22
2018-02-21T00:16:28.172Z,-4.21
2018-02-21T00:17:28.142Z,-4.16
2018-02-21T00:18:28.156Z,-4.13
2018-02-21T00:19:28.167Z,-4.13
2018-02-21T00:20:28.174Z,-4.17
2018-02-21T00:21:28.185Z,-4.16
2018-02-21T00:22:28.165Z,-4.14
2018-02-21T00:23:28.194Z,-4.16
2018-02-21T00:24:28.189Z,-4.12
2018-02-21T00:25:28.197Z,-4.13
2018-02-21T00:26:28.197Z,-4.13
2018-02-21T00:27:28.188Z,-4.11
2018-02-21T00:28:28.219Z,-4.06
2018-02-21T00:29:28.340Z,-4.18
2018-02-21T00:30:28.189Z,-4.17
2018-02-21T00:31:28.338Z,-4.21
2018-02-21T00:32:28.351Z,-4.22
2018-02-21T00:33:28.356Z,-4.18
2018-02-21T00:34:28.200Z,-4.24
2018-02-21T00:35:28.368Z,-4.2
2018-02-21T00:36:28.214Z,-4.24
2018-02-21T00:37:28.326Z,-4.26
2018-02-21T00:38:28.201Z,-4.22
2018-02-21T00:39:28.238Z,-4.22
2018-02-21T00:40:28.379Z,-4.15
2018-02-21T00:41:28.204Z,-4.12
2018-02-21T00:42:28.394Z,-4.18
2018-02-21T00:43:28.225Z,-4.21
2018-02-21T00:44:28.437Z,-4.21
2018-02-21T00:45:28.233Z,-4.22
2018-02-21T00:46:28.237Z,-4.21
2018-02-21T00:47:28.245Z,-4.19
2018-02-21T00:48:28.226Z,-4.21
2018-02-21T00:49:28.253Z,-4.21
2018-02-21T00:50:28.245Z,-4.2
2018-02-21T00:51:28.253Z,-4.25
2018-02-21T00:52:28.276Z,-4.22
2018-02-21T00:53:28.582Z,-4.26
2018-02-21T00:54:28.282Z,-4.18
2018-02-21T00:55:28.279Z,-4.21
2018-02-21T00:56:28.283Z,-4.12
2018-02-21T00:57:28.292Z,-4.18
2018-02-21T00:58:28.298Z,-4.18
2018-02-21T00:59:28.266Z,-4.16
2018-02-21T01:00:28.300Z,-4.17
2018-02-21T01:01:28.286Z,-4.22
2018-02-21T01:02:28.291Z,-4.2
2018-02-21T01:03:28.759Z,-4.25
2018-02-21T01:04:28.309Z,-4.23
2018-02-21T01:05:28.312Z,-4.26
2018-02-21T01:06:28.289Z,-4.21
2018-02-21T01:07:28.305Z,-4.18
2018-02-21T01:08:28.356Z,-4.22
2018-02-21T01:09:28.302Z,-4.25
2018-02-21T01:10:28.372Z,-4.31
2018-02-21T01:11:28.306Z,-4.26
2018-02-21T01:12:28.312Z,-4.2
2018-02-21T01:13:28.328Z,-4.19
2018-02-21T01:14:28.317Z,-4.16
2018-02-21T01:15:28.320Z,-4.19
2018-02-21T01:16:28.367Z,-4.16
2018-02-21T01:17:28.358Z,-4.21
2018-02-21T01:18:28.332Z,-4.28
2018-02-21T01:19:28.353Z,-4.34
2018-02-21T01:20:28.655Z,-4.23
2018-02-21T01:21:28.364Z,-4.21
2018-02-21T01:22:28.364Z,-4.17
2018-02-21T01:23:28.377Z,-4.2
2018-02-21T01:24:28.374Z,-4.28
2018-02-21T01:25:28.394Z,-4.28
2018-02-21T01:26:28.388Z,-4.3
2018-02-21T01:27:28.368Z,-4.29
2018-02-21T01:28:28.384Z,-4.29
2018-02-21T01:29:28.388Z,-4.18
2018-02-21T01:30:28.463Z,-4.26
2018-02-21T01:31:28.385Z,-4.21
2018-02-21T01:32:28.543Z,-4.24
2018-02-21T01:33:28.414Z,-4.17
2018-02-21T01:34:28.387Z,-4.22
2018-02-21T01:35:28.409Z,-4.16
2018-02-21T01:36:28.410Z,-4.26
2018-02-21T01:37:28.416Z,-4.32
2018-02-21T01:38:28.775Z,-4.36
2018-02-21T01:39:28.420Z,-4.36
2018-02-21T01:40:28.577Z,-4.31
2018-02-21T01:41:28.601Z,-4.3
2018-02-21T01:42:28.478Z,-4.24
2018-02-21T01:43:28.464Z,-4.35
2018-02-21T01:44:28.491Z,-4.37
2018-02-21T01:45:28.416Z,-4.4
2018-02-21T01:46:28.599Z,-4.45
2018-02-21T01:47:28.600Z,-4.37
2018-02-21T01:48:28.517Z,-4.35
2018-02-21T01:49:28.593Z,-4.39
2018-02-21T01:50:28.445Z,-4.48
2018-02-21T01:51:28.450Z,-4.34
2018-02-21T01:52:28.732Z,-4.26
2018-02-21T01:53:28.637Z,-4.35
2018-02-21T01:54:28.465Z,-4.42
2018-02-21T01:55:28.449Z,-4.43
2018-02-21T01:56:28.455Z,-4.36
2018-02-21T01:57:28.478Z,-4.24
2018-02-21T01:58:28.463Z,-4.28
2018-02-21T01:59:28.458Z,-4.28
2018-02-21T02:00:28.472Z,-4.3
2018-02-21T02:01:28.468Z,-4.28
2018-02-21T02:02:28.459Z,-4.23
2018-02-21T02:03:28.534Z,-4.25
2018-02-21T02:04:28.481Z,-4.25
2018-02-21T02:05:28.466Z,-4.35
2018-02-21T02:06:28.497Z,-4.22
2018-02-21T02:07:28.463Z,-4.32
2018-02-21T02:08:28.547Z,-4.21
2018-02-21T02:09:28.480Z,-4.23
2018-02-21T02:10:28.506Z,-4.17
2018-02-21T02:11:28.506Z,-4.22
2018-02-21T02:12:28.507Z,-4.26
2018-02-21T02:13:28.657Z,-4.13
2018-02-21T02:14:28.512Z,-4.21
2018-02-21T02:15:28.538Z,-4.17
2018-02-21T02:16:28.521Z,-4.13
2018-02-21T02:17:28.556Z,-4.1
2018-02-21T02:18:28.527Z,-4.19
2018-02-21T02:19:28.539Z,-4.13
2018-02-21T02:20:28.560Z,-4.09
2018-02-21T02:21:28.547Z,-4.15
2018-02-21T02:22:28.547Z,-4.07
2018-02-21T02:23:28.544Z,-4.1
2018-02-21T02:24:28.567Z,-4.04
2018-02-21T02:25:28.582Z,-4.04
2018-02-21T02:26:28.547Z,-4.04
2018-02-21T02:27:28.575Z,-4.07
2018-02-21T02:28:28.557Z,-4.1
2018-02-21T02:29:28.559Z,-4.02
2018-02-21T02:30:28.596Z,-4
2018-02-21T02:31:28.588Z,-3.96
2018-02-21T02:32:28.585Z,-3.97
2018-02-21T02:33:28.598Z,-3.94
2018-02-21T02:34:28.612Z,-3.94
2018-02-21T02:35:28.603Z,-3.99
2018-02-21T02:36:28.628Z,-3.91
2018-02-21T02:37:28.590Z,-4.05
2018-02-21T02:38:28.586Z,-3.98
2018-02-21T02:39:28.588Z,-4.02
2018-02-21T02:40:28.598Z,-3.94
2018-02-21T02:41:28.634Z,-3.9
2018-02-21T02:42:28.656Z,-3.87
2018-02-21T02:43:28.615Z,-3.84
2018-02-21T02:44:28.623Z,-3.97
2018-02-21T02:45:28.635Z,-4.03
2018-02-21T02:46:28.635Z,-3.93
2018-02-21T02:47:28.640Z,-3.94
2018-02-21T02:48:28.640Z,-3.9
2018-02-21T02:49:28.628Z,-3.87
2018-02-21T02:50:28.647Z,-3.83
2018-02-21T02:51:28.682Z,-3.88
2018-02-21T02:52:28.798Z,-3.88
2018-02-21T02:53:28.799Z,-3.78
2018-02-21T02:54:28.786Z,-3.79
2018-02-21T02:55:28.794Z,-3.8
2018-02-21T02:56:28.814Z,-3.78
2018-02-21T02:57:28.792Z,-3.71
2018-02-21T02:58:28.823Z,-3.69
2018-02-21T02:59:28.820Z,-3.75
2018-02-21T03:00:28.821Z,-3.71
2018-02-21T03:01:28.848Z,-3.75
2018-02-21T03:02:28.823Z,-3.71
2018-02-21T03:03:28.867Z,-3.7
2018-02-21T03:04:28.846Z,-3.66
2018-02-21T03:05:28.826Z,-3.66
2018-02-21T03:06:28.870Z,-3.65
2018-02-21T03:07:28.929Z,-3.63
2018-02-21T03:08:28.830Z,-3.64
2018-02-21T03:09:28.837Z,-3.64
2018-02-21T03:10:28.688Z,-3.6
2018-02-21T03:11:28.691Z,-3.58
2018-02-21T03:12:28.722Z,-3.6
2018-02-21T03:13:28.717Z,-3.56
2018-02-21T03:14:28.736Z,-3.55
2018-02-21T03:15:28.728Z,-3.58
2018-02-21T03:16:28.703Z,-3.56
2018-02-21T03:17:28.730Z,-3.52
2018-02-21T03:18:28.723Z,-3.48
2018-02-21T03:19:28.723Z,-3.53
2018-02-21T03:20:28.722Z,-3.49
2018-02-21T03:21:28.768Z,-3.52
2018-02-21T03:22:28.760Z,-3.55
2018-02-21T03:23:28.725Z,-3.52
2018-02-21T03:24:28.748Z,-3.52
2018-02-21T03:25:28.741Z,-3.47
2018-02-21T03:26:28.747Z,-3.48
2018-02-21T03:27:28.778Z,-3.45
2018-02-21T03:28:28.756Z,-3.48
2018-02-21T03:29:28.763Z,-3.5
2018-02-21T03:30:28.802Z,-3.4
2018-02-21T03:31:28.791Z,-3.41
2018-02-21T03:32:28.793Z,-3.4
2018-02-21T03:33:28.796Z,-3.38
2018-02-21T03:34:28.788Z,-3.42
2018-02-21T03:35:28.781Z,-3.37
2018-02-21T03:36:28.951Z,-3.4
2018-02-21T03:37:28.801Z,-3.38
2018-02-21T03:38:28.794Z,-3.41
2018-02-21T03:39:28.957Z,-3.37
2018-02-21T03:40:28.789Z,-3.37
2018-02-21T03:41:28.804Z,-3.39
2018-02-21T03:42:28.828Z,-3.3
2018-02-21T03:43:28.820Z,-3.36
2018-02-21T03:44:28.820Z,-3.39
2018-02-21T03:45:28.831Z,-3.39
2018-02-21T03:46:28.824Z,-3.36
2018-02-21T03:47:28.849Z,-3.31
2018-02-21T03:48:28.827Z,-3.31
2018-02-21T03:49:28.840Z,-3.33
2018-02-21T03:50:28.879Z,-3.39
2018-02-21T03:51:28.843Z,-3.33
2018-02-21T03:52:28.839Z,-3.3
2018-02-21T03:53:28.851Z,-3.27
2018-02-21T03:54:28.857Z,-3.27
2018-02-21T03:55:28.928Z,-3.24
2018-02-21T03:56:28.850Z,-3.19
2018-02-21T03:57:28.865Z,-3.15
2018-02-21T03:58:28.869Z,-3.12
2018-02-21T03:59:29.068Z,-3.13
2018-02-21T04:00:28.866Z,-3.21
2018-02-21T04:01:28.871Z,-3.19
2018-02-21T04:02:28.896Z,-3.21
2018-02-21T04:03:29.046Z,-3.12
2018-02-21T04:04:29.050Z,-3.16
2018-02-21T04:05:29.060Z,-3.19
2018-02-21T04:06:29.068Z,-3.14
2018-02-21T04:07:29.070Z,-3.16
2018-02-21T04:08:29.074Z,-3.14
2018-02-21T04:09:29.086Z,-3.13
2018-02-21T04:10:29.067Z,-3.12
2018-02-21T04:11:29.069Z,-3.07
2018-02-21T04:12:29.107Z,-3.09
2018-02-21T04:13:29.085Z,-3.12
2018-02-21T04:14:29.075Z,-3.16
2018-02-21T04:15:28.934Z,-3.22
2018-02-21T04:16:29.075Z,-3.15
2018-02-21T04:17:29.087Z,-3.26
2018-02-21T04:18:28.921Z,-3.28
2018-02-21T04:19:29.159Z,-3.25
2018-02-21T04:20:31.075Z,-3.15
2018-02-21T04:21:28.955Z,-3.15
2018-02-21T04:22:28.969Z,-3.23
2018-02-21T04:23:28.967Z,-3.24
2018-02-21T04:24:29.042Z,-3.18
2018-02-21T04:25:29.174Z,-3.12
2018-02-21T04:26:29.126Z,-3.13
2018-02-21T04:27:29.151Z,-3.1
2018-02-21T04:28:29.126Z,-3.07
2018-02-21T04:29:28.983Z,-3.09
2018-02-21T04:30:29.155Z,-3.09
2018-02-21T04:31:28.975Z,-3.06
2018-02-21T04:32:29.151Z,-3.11
2018-02-21T04:33:29.138Z,-3.07
2018-02-21T04:34:29.140Z,-3.18
2018-02-21T04:35:29.203Z,-3.14
2018-02-21T04:36:29.168Z,-3.11
2018-02-21T04:37:29.166Z,-3.11
2018-02-21T04:38:29.002Z,-3.02
2018-02-21T04:39:29.004Z,-2.96
2018-02-21T04:40:29.014Z,-2.97
2018-02-21T04:41:29.016Z,-2.97
2018-02-21T04:42:28.998Z,-3.02
2018-02-21T04:43:29.023Z,-2.99
2018-02-21T04:44:29.005Z,-3.01
2018-02-21T04:45:29.055Z,-3.03
2018-02-21T04:46:29.082Z,-3.05
2018-02-21T04:47:29.084Z,-3.05
2018-02-21T04:48:29.038Z,-3.04
2018-02-21T04:49:29.028Z,-3.11
2018-02-21T04:50:29.048Z,-3.09
2018-02-21T04:51:29.021Z,-3.08
2018-02-21T04:52:29.024Z,-3.21
2018-02-21T04:53:29.032Z,-3.16
2018-02-21T04:54:29.055Z,-3.25
2018-02-21T04:55:29.062Z,-3.24
2018-02-21T04:56:29.061Z,-3.24
2018-02-21T04:57:29.043Z,-3.24
2018-02-21T04:58:29.049Z,-3.3
2018-02-21T04:59:29.058Z,-3.33
2018-02-21T05:00:29.229Z,-3.29
2018-02-21T05:01:29.056Z,-3.26
2018-02-21T05:02:29.063Z,-3.19
2018-02-21T05:03:29.066Z,-3.29
2018-02-21T05:04:29.072Z,-3.27
2018-02-21T05:05:29.101Z,-3.28
2018-02-21T05:06:29.088Z,-3.36
2018-02-21T05:07:29.095Z,-3.26
2018-02-21T05:08:29.106Z,-3.27
2018-02-21T05:09:29.252Z,-3.3
2018-02-21T05:10:29.126Z,-3.29
2018-02-21T05:11:29.104Z,-3.28
2018-02-21T05:12:29.131Z,-3.27
2018-02-21T05:13:29.132Z,-3.31
2018-02-21T05:14:29.161Z,-3.35
2018-02-21T05:15:29.183Z,-3.38
2018-02-21T05:16:29.301Z,-3.28
2018-02-21T05:17:29.298Z,-3.35
2018-02-21T05:18:29.140Z,-3.34
2018-02-21T05:19:29.308Z,-3.35
2018-02-21T05:20:29.321Z,-3.39
2018-02-21T05:21:29.317Z,-3.36
2018-02-21T05:22:29.174Z,-3.39
2018-02-21T05:23:29.316Z,-3.32
2018-02-21T05:24:29.319Z,-3.27
2018-02-21T05:25:29.365Z,-3.3
2018-02-21T05:26:29.324Z,-3.38
2018-02-21T05:27:29.340Z,-3.39
2018-02-21T05:28:29.347Z,-3.47
2018-02-21T05:29:29.193Z,-3.49
2018-02-21T05:30:29.421Z,-3.36
2018-02-21T05:31:29.340Z,-3.42
2018-02-21T05:32:29.370Z,-3.49
2018-02-21T05:33:29.239Z,-3.42
2018-02-21T05:34:29.219Z,-3.5
2018-02-21T05:35:29.495Z,-3.55
2018-02-21T05:36:29.229Z,-3.41
2018-02-21T05:37:29.233Z,-3.34
2018-02-21T05:38:29.217Z,-3.39
2018-02-21T05:39:29.213Z,-3.37
2018-02-21T05:40:29.243Z,-3.41
2018-02-21T05:41:29.229Z,-3.34
2018-02-21T05:42:29.234Z,-3.43
2018-02-21T05:43:29.280Z,-3.38
2018-02-21T05:44:29.251Z,-3.5
2018-02-21T05:45:29.279Z,-3.43
2018-02-21T05:46:29.263Z,-3.36
2018-02-21T05:47:29.252Z,-3.31
2018-02-21T05:48:29.251Z,-3.37
2018-02-21T05:49:29.275Z,-3.35
2018-02-21T05:50:29.279Z,-3.37
2018-02-21T05:51:29.294Z,-3.4
2018-02-21T05:52:29.260Z,-3.36
2018-02-21T05:53:29.278Z,-3.34
2018-02-21T05:54:29.258Z,-3.33
2018-02-21T05:55:29.640Z,-3.35
2018-02-21T05:56:29.346Z,-3.38
2018-02-21T05:57:29.282Z,-3.45
2018-02-21T05:58:29.304Z,-3.42
2018-02-21T05:59:29.295Z,-3.44
2018-02-21T06:00:29.325Z,-3.53
2018-02-21T06:01:29.300Z,-3.56
2018-02-21T06:02:29.464Z,-3.51
2018-02-21T06:03:29.300Z,-3.45
2018-02-21T06:04:29.298Z,-3.42
2018-02-21T06:05:29.296Z,-3.44
2018-02-21T06:06:29.312Z,-3.46
2018-02-21T06:07:29.366Z,-3.47
2018-02-21T06:08:29.308Z,-3.36
2018-02-21T06:09:29.315Z,-3.43
2018-02-21T06:10:29.492Z,-3.48
2018-02-21T06:11:29.333Z,-3.48
2018-02-21T06:12:29.516Z,-3.44
2018-02-21T06:13:29.329Z,-3.42
2018-02-21T06:14:29.414Z,-3.52
2018-02-21T06:15:29.854Z,-3.48
2018-02-21T06:16:29.332Z,-3.46
2018-02-21T06:17:29.344Z,-3.47
2018-02-21T06:18:29.662Z,-3.5
2018-02-21T06:19:29.350Z,-3.52
2018-02-21T06:20:29.358Z,-3.47
2018-02-21T06:21:29.398Z,-3.42
2018-02-21T06:22:29.353Z,-3.5
2018-02-21T06:23:29.391Z,-3.57
2018-02-21T06:24:29.373Z,-3.44
2018-02-21T06:25:29.378Z,-3.53
2018-02-21T06:26:29.364Z,-3.49
2018-02-21T06:27:29.536Z,-3.57
2018-02-21T06:28:29.540Z,-3.53
2018-02-21T06:29:29.540Z,-3.51
2018-02-21T06:30:29.556Z,-3.5
2018-02-21T06:31:29.587Z,-3.6
2018-02-21T06:32:29.548Z,-3.55
2018-02-21T06:33:29.552Z,-3.56
2018-02-21T06:34:29.589Z,-3.54
2018-02-21T06:35:29.594Z,-3.6
2018-02-21T06:36:29.619Z,-3.59
2018-02-21T06:37:29.579Z,-3.55
2018-02-21T06:38:29.857Z,-3.56
2018-02-21T06:39:29.588Z,-3.62
2018-02-21T06:40:29.656Z,-3.58
2018-02-21T06:41:29.592Z,-3.63
2018-02-21T06:42:29.601Z,-3.52
2018-02-21T06:43:29.616Z,-3.57
2018-02-21T06:44:29.605Z,-3.5
2018-02-21T06:45:29.444Z,-3.54
2018-02-21T06:46:29.463Z,-3.54
2018-02-21T06:47:29.486Z,-3.65
2018-02-21T06:48:29.449Z,-3.56
2018-02-21T06:49:29.625Z,-3.56
2018-02-21T06:50:29.610Z,-3.58
2018-02-21T06:51:29.618Z,-3.62
2018-02-21T06:52:29.642Z,-3.62
2018-02-21T06:53:29.630Z,-3.7
2018-02-21T06:54:29.654Z,-3.77
2018-02-21T06:55:29.647Z,-3.63
2018-02-21T06:56:29.673Z,-3.69
2018-02-21T06:57:29.669Z,-3.66
2018-02-21T06:58:29.643Z,-3.62
2018-02-21T06:59:29.496Z,-3.64
2018-02-21T07:00:29.641Z,-3.57
2018-02-21T07:01:29.659Z,-3.62
2018-02-21T07:02:29.529Z,-3.58
2018-02-21T07:03:29.491Z,-3.53
2018-02-21T07:04:29.542Z,-3.51
2018-02-21T07:05:29.508Z,-3.57
2018-02-21T07:06:29.515Z,-3.52
2018-02-21T07:07:29.545Z,-3.61
2018-02-21T07:08:29.538Z,-3.56
2018-02-21T07:09:29.530Z,-3.56
2018-02-21T07:10:29.531Z,-3.29
2018-02-21T07:11:29.717Z,-3.2
2018-02-21T07:12:29.565Z,-3.4
2018-02-21T07:13:29.535Z,-3.43
2018-02-21T07:14:29.542Z,-3.39
2018-02-21T07:15:29.991Z,-3.4
2018-02-21T07:16:29.557Z,-3.46
2018-02-21T07:17:29.571Z,-3.44
2018-02-21T07:18:29.694Z,-3.49
2018-02-21T07:19:29.576Z,-3.51
2018-02-21T07:20:29.581Z,-3.54
2018-02-21T07:21:29.654Z,-3.48
2018-02-21T07:22:29.583Z,-3.43
2018-02-21T07:23:29.642Z,-3.41
2018-02-21T07:24:29.579Z,-3.45
2018-02-21T07:25:29.579Z,-3.45
2018-02-21T07:26:29.574Z,-3.42
2018-02-21T07:27:29.586Z,-3.46
2018-02-21T07:28:29.648Z,-3.42
2018-02-21T07:29:29.583Z,-3.38
2018-02-21T07:30:29.611Z,-3.41
2018-02-21T07:31:29.579Z,-3.4
2018-02-21T07:32:29.596Z,-3.41
2018-02-21T07:33:29.589Z,-3.42
2018-02-21T07:34:29.596Z,-3.41
2018-02-21T07:35:29.605Z,-3.41
2018-02-21T07:36:29.589Z,-3.44
2018-02-21T07:37:29.604Z,-3.44
2018-02-21T07:38:29.764Z,-3.43
2018-02-21T07:39:29.782Z,-3.4
2018-02-21T07:40:29.762Z,-3.4
2018-02-21T07:41:29.762Z,-3.35
2018-02-21T07:42:29.752Z,-3.42
2018-02-21T07:43:29.781Z,-3.37
2018-02-21T07:44:29.808Z,-3.3
2018-02-21T07:45:29.842Z,-3.29
2018-02-21T07:46:29.770Z,-3.27
2018-02-21T07:47:29.777Z,-3.24
2018-02-21T07:48:29.793Z,-3.22
2018-02-21T07:49:29.823Z,-3.29
2018-02-21T07:50:29.783Z,-3.33
2018-02-21T07:51:29.848Z,-3.34
2018-02-21T07:52:29.802Z,-3.34
2018-02-21T07:53:29.803Z,-3.31
2018-02-21T07:54:29.795Z,-3.3
2018-02-21T07:55:29.819Z,-3.32
2018-02-21T07:56:30.687Z,-3.28
2018-02-21T07:57:29.806Z,-3.34
2018-02-21T07:58:29.791Z,-3.26
2018-02-21T07:59:31.086Z,-3.23
2018-02-21T08:00:29.717Z,-3.3
2018-02-21T08:01:29.804Z,-3.23
2018-02-21T08:02:29.806Z,-3.23
2018-02-21T08:03:29.823Z,-3.2
2018-02-21T08:04:29.824Z,-3.18
2018-02-21T08:05:29.838Z,-3.17
2018-02-21T08:06:29.956Z,-3.2
2018-02-21T08:07:29.832Z,-3.23
2018-02-21T08:08:29.840Z,-3.25
2018-02-21T08:09:29.833Z,-3.18
2018-02-21T08:10:29.814Z,-3.12
2018-02-21T08:11:29.869Z,-3.11
2018-02-21T08:12:29.865Z,-3.11
2018-02-21T08:13:29.870Z,-3.14
2018-02-21T08:14:29.711Z,-3.17
2018-02-21T08:15:29.833Z,-3.18
2018-02-21T08:16:29.705Z,-3.15
2018-02-21T08:17:29.728Z,-3.12
2018-02-21T08:18:29.719Z,-3.17
2018-02-21T08:19:29.723Z,-3.13
2018-02-21T08:20:30.024Z,-3.18
2018-02-21T08:21:29.756Z,-3.16
2018-02-21T08:22:29.728Z,-3.12
2018-02-21T08:23:29.743Z,-3.26
2018-02-21T08:24:29.775Z,-3.39
2018-02-21T08:25:29.775Z,-3.33
2018-02-21T08:26:29.777Z,-3.27
2018-02-21T08:27:29.765Z,-3.18
2018-02-21T08:28:29.927Z,-3.15
2018-02-21T08:29:29.757Z,-3.09
2018-02-21T08:30:29.804Z,-3.14
2018-02-21T08:31:29.782Z,-3.15
2018-02-21T08:32:29.784Z,-3.07
2018-02-21T08:33:29.788Z,-3.08
2018-02-21T08:34:29.793Z,-3.11
2018-02-21T08:35:29.800Z,-3.03
2018-02-21T08:36:29.846Z,-3.04
2018-02-21T08:37:29.817Z,-3.04
2018-02-21T08:38:29.810Z,-3.12
2018-02-21T08:39:29.880Z,-3.08
2018-02-21T08:40:29.818Z,-3.03
2018-02-21T08:41:29.969Z,-2.98
2018-02-21T08:42:29.842Z,-3.15
2018-02-21T08:43:29.816Z,-3.07
2018-02-21T08:44:30.004Z,-3.03
2018-02-21T08:45:29.832Z,-2.98
2018-02-21T08:46:29.837Z,-3.1
2018-02-21T08:47:29.815Z,-3.09
2018-02-21T08:48:29.831Z,-3.1
2018-02-21T08:49:29.817Z,-3.12
2018-02-21T08:50:29.978Z,-3.16
2018-02-21T08:51:29.987Z,-3.04
2018-02-21T08:52:30.009Z,-3
2018-02-21T08:53:29.996Z,-2.93
2018-02-21T08:54:29.991Z,-2.93
2018-02-21T08:55:29.990Z,-3
2018-02-21T08:56:29.993Z,-3.04
2018-02-21T08:57:30.016Z,-3.05
2018-02-21T08:58:29.997Z,-3.02
2018-02-21T08:59:29.842Z,-3.03
2018-02-21T09:00:30.007Z,-3.07
2018-02-21T09:01:30.015Z,-2.97
2018-02-21T09:02:30.018Z,-3
2018-02-21T09:03:30.022Z,-3
2018-02-21T09:04:30.033Z,-3.05
2018-02-21T09:05:30.035Z,-3.14
2018-02-21T09:06:30.192Z,-3.06
2018-02-21T09:07:30.034Z,-3
2018-02-21T09:08:30.074Z,-3.07
2018-02-21T09:09:30.041Z,-3.02
2018-02-21T09:10:30.202Z,-3.03
2018-02-21T09:11:37.085Z,-3.07
2018-02-21T09:12:30.054Z,-2.99
2018-02-21T09:13:30.187Z,-3.06
2018-02-21T09:14:30.081Z,-3.14
2018-02-21T09:15:30.080Z,-3.13
2018-02-21T09:16:30.351Z,-2.95
2018-02-21T09:17:30.110Z,-3.02
2018-02-21T09:18:30.113Z,-3.03
2018-02-21T09:19:30.092Z,-3
2018-02-21T09:20:29.956Z,-2.93
2018-02-21T09:21:30.105Z,-2.94
2018-02-21T09:22:29.941Z,-2.99
2018-02-21T09:23:30.132Z,-2.98
2018-02-21T09:24:30.114Z,-2.95
2018-02-21T09:25:29.962Z,-2.93
2018-02-21T09:26:29.944Z,-2.9
2018-02-21T09:27:29.970Z,-2.93
2018-02-21T09:28:29.985Z,-2.9
2018-02-21T09:29:29.965Z,-2.98
2018-02-21T09:30:29.980Z,-2.89
2018-02-21T09:31:29.974Z,-2.86
2018-02-21T09:32:29.986Z,-2.75
2018-02-21T09:33:30.025Z,-2.68
2018-02-21T09:34:29.988Z,-2.6
2018-02-21T09:35:29.972Z,-2.64
2018-02-21T09:36:29.979Z,-2.74
2018-02-21T09:37:29.986Z,-2.87
2018-02-21T09:38:30.049Z,-2.79
2018-02-21T09:39:30.839Z,-2.78
2018-02-21T09:40:30.052Z,-2.87
2018-02-21T09:41:29.999Z,-2.89
2018-02-21T09:42:30.006Z,-2.99
2018-02-21T09:43:30.027Z,-2.8
2018-02-21T09:44:30.003Z,-2.76
2018-02-21T09:45:30.203Z,-2.98
2018-02-21T09:46:30.032Z,-2.97
2018-02-21T09:47:30.017Z,-2.91
2018-02-21T09:48:30.205Z,-2.94
2018-02-21T09:49:30.040Z,-2.92
2018-02-21T09:50:30.024Z,-2.99
2018-02-21T09:51:30.048Z,-3.01
2018-02-21T09:52:30.026Z,-2.95
2018-02-21T09:53:30.043Z,-2.85
2018-02-21T09:54:30.068Z,-2.94
2018-02-21T09:55:30.030Z,-3.04
2018-02-21T09:56:30.079Z,-3.28
2018-02-21T09:57:30.054Z,-3
2018-02-21T09:58:30.071Z,-2.78
2018-02-21T09:59:30.065Z,-2.77
2018-02-21T10:00:30.044Z,-3.07
2018-02-21T10:01:30.238Z,-2.88
2018-02-21T10:02:30.212Z,-3.26
2018-02-21T10:03:30.219Z,-2.93
2018-02-21T10:04:30.217Z,-2.88
2018-02-21T10:05:30.113Z,-2.79
2018-02-21T10:06:30.290Z,-2.94
2018-02-21T10:07:30.081Z,-2.98
2018-02-21T10:08:30.099Z,-2.89
2018-02-21T10:09:30.082Z,-2.93
2018-02-21T10:10:30.099Z,-2.94
2018-02-21T10:11:30.257Z,-2.92
2018-02-21T10:12:30.257Z,-2.84
2018-02-21T10:13:30.260Z,-2.83
2018-02-21T10:14:30.131Z,-2.79
2018-02-21T10:15:30.105Z,-3
2018-02-21T10:16:30.157Z,-3.02
2018-02-21T10:17:30.321Z,-2.92
2018-02-21T10:18:30.282Z,-2.92
2018-02-21T10:19:30.143Z,-3.07
2018-02-21T10:20:30.125Z,-3.01
2018-02-21T10:21:30.128Z,-3.24
2018-02-21T10:22:30.149Z,-3.24
2018-02-21T10:23:30.126Z,-3.27
2018-02-21T10:24:30.151Z,-3.2
2018-02-21T10:25:30.152Z,-3.25
2018-02-21T10:26:30.150Z,-3.18
2018-02-21T10:27:30.158Z,-3.03
2018-02-21T10:28:30.152Z,-3.23
2018-02-21T10:29:30.168Z,-3.2
2018-02-21T10:30:30.193Z,-3.33
2018-02-21T10:31:30.159Z,-3.36
2018-02-21T10:32:30.364Z,-3.32
2018-02-21T10:33:30.164Z,-3.23
2018-02-21T10:34:30.179Z,-3.05
2018-02-21T10:35:30.213Z,-3.28
2018-02-21T10:36:30.196Z,-3.33
2018-02-21T10:37:30.194Z,-3.44
2018-02-21T10:38:30.389Z,-3.33
2018-02-21T10:39:30.192Z,-3.33
2018-02-21T10:40:30.225Z,-3.21
2018-02-21T10:41:30.195Z,-3
2018-02-21T10:42:30.201Z,-3.07
2018-02-21T10:43:30.207Z,-3.02
2018-02-21T10:44:30.215Z,-3.13
2018-02-21T10:45:30.253Z,-3.3
2018-02-21T10:46:30.225Z,-3.38
2018-02-21T10:47:30.238Z,-3.41
2018-02-21T10:48:30.266Z,-3.26
2018-02-21T10:49:30.242Z,-3.05
2018-02-21T10:50:30.255Z,-3.36
2018-02-21T10:51:30.244Z,-3.34
2018-02-21T10:52:30.246Z,-3.05
2018-02-21T10:53:30.263Z,-3.12
2018-02-21T10:54:30.262Z,-3.23
2018-02-21T10:55:30.274Z,-3.21
2018-02-21T10:56:30.270Z,-3.31
2018-02-21T10:57:30.419Z,-3.16
2018-02-21T10:58:30.438Z,-3.13
2018-02-21T10:59:30.422Z,-2.97
2018-02-21T11:00:30.300Z,-2.84
2018-02-21T11:01:30.413Z,-2.97
2018-02-21T11:02:30.268Z,-2.81
2018-02-21T11:03:30.268Z,-2.83
2018-02-21T11:04:30.266Z,-3.06
2018-02-21T11:05:30.282Z,-3.05
2018-02-21T11:06:30.288Z,-3.09
2018-02-21T11:07:30.280Z,-3.27
2018-02-21T11:08:30.293Z,-3.08
2018-02-21T11:09:30.299Z,-3.31
2018-02-21T11:10:30.598Z,-3.21
2018-02-21T11:11:30.274Z,-3.07
2018-02-21T11:12:30.282Z,-3.02
2018-02-21T11:13:30.457Z,-3.05
2018-02-21T11:14:30.459Z,-3.32
2018-02-21T11:15:30.484Z,-3.03
2018-02-21T11:16:30.445Z,-2.98
2018-02-21T11:17:30.437Z,-3.14
2018-02-21T11:18:30.455Z,-3.2
2018-02-21T11:19:30.507Z,-3.12
2018-02-21T11:20:30.506Z,-3.33
2018-02-21T11:21:30.499Z,-3.42
2018-02-21T11:22:30.321Z,-3.21
2018-02-21T11:23:30.725Z,-3.21
2018-02-21T11:24:30.480Z,-3.25
2018-02-21T11:25:30.485Z,-3.47
2018-02-21T11:26:30.492Z,-3.41
2018-02-21T11:27:30.335Z,-3.31
2018-02-21T11:28:30.328Z,-3.15
2018-02-21T11:29:30.553Z,-3.14
2018-02-21T11:30:30.353Z,-3.13
2018-02-21T11:31:30.373Z,-3.18
2018-02-21T11:32:30.504Z,-3.23
2018-02-21T11:33:30.507Z,-3.24
2018-02-21T11:34:30.514Z,-3.32
2018-02-21T11:35:30.350Z,-3.31
2018-02-21T11:36:30.394Z,-3.16
2018-02-21T11:37:30.366Z,-2.98
2018-02-21T11:38:30.388Z,-2.83
2018-02-21T11:39:30.552Z,-3.04
2018-02-21T11:40:30.550Z,-2.89
2018-02-21T11:41:30.716Z,-3.15
2018-02-21T11:42:30.393Z,-3.15
2018-02-21T11:43:30.397Z,-3.15
2018-02-21T11:44:30.574Z,-2.92
2018-02-21T11:45:30.409Z,-2.97
2018-02-21T11:46:30.426Z,-3.16
2018-02-21T11:47:30.405Z,-3.1
2018-02-21T11:48:30.404Z,-2.85
2018-02-21T11:49:30.413Z,-2.74
2018-02-21T11:50:30.625Z,-2.83
2018-02-21T11:51:30.428Z,-2.89
2018-02-21T11:52:30.426Z,-2.88
2018-02-21T11:53:30.406Z,-3.12
2018-02-21T11:54:30.472Z,-3.11
2018-02-21T11:55:30.422Z,-3.45
2018-02-21T11:56:30.442Z,-3.19
2018-02-21T11:57:30.607Z,-3.14
2018-02-21T11:58:30.419Z,-3.24
2018-02-21T11:59:30.426Z,-3.32
2018-02-21T12:00:30.596Z,-3.53
2018-02-21T12:01:30.482Z,-3.52
2018-02-21T12:02:30.596Z,-3.4
2018-02-21T12:03:30.439Z,-3.54
2018-02-21T12:04:30.448Z,-3.43
2018-02-21T12:05:30.461Z,-3.58
2018-02-21T12:06:30.484Z,-3.3
2018-02-21T12:07:30.631Z,-3.48
2018-02-21T12:08:30.485Z,-3.36
2018-02-21T12:09:30.459Z,-3.33
2018-02-21T12:10:30.630Z,-3.12
2018-02-21T12:11:30.489Z,-3.29
2018-02-21T12:12:30.471Z,-3.15
2018-02-21T12:13:30.480Z,-3.18
2018-02-21T12:14:30.482Z,-3.19
2018-02-21T12:15:30.644Z,-3.01
2018-02-21T12:16:30.514Z,-2.85
2018-02-21T12:17:30.494Z,-2.97
2018-02-21T12:18:30.527Z,-2.91
2018-02-21T12:19:30.499Z,-2.81
2018-02-21T12:20:30.649Z,-2.9
2018-02-21T12:21:30.528Z,-3.56
2018-02-21T12:22:30.508Z,-3.44
2018-02-21T12:23:30.667Z,-3.29
2018-02-21T12:24:30.516Z,-3.06
2018-02-21T12:25:30.663Z,-3.3
2018-02-21T12:26:30.703Z,-3.08
2018-02-21T12:27:30.721Z,-3.09
2018-02-21T12:28:30.682Z,-3.15
2018-02-21T12:29:31.070Z,-3.1
2018-02-21T12:30:30.707Z,-3.24
2018-02-21T12:31:30.593Z,-3.03
2018-02-21T12:32:30.744Z,-3.14
2018-02-21T12:33:30.548Z,-3.08
2018-02-21T12:34:30.571Z,-3.12
2018-02-21T12:35:30.579Z,-2.97
2018-02-21T12:36:30.719Z,-2.96
2018-02-21T12:37:30.585Z,-3.01
2018-02-21T12:38:30.571Z,-3.36
2018-02-21T12:39:30.571Z,-3.03
2018-02-21T12:40:30.565Z,-3.32
2018-02-21T12:41:30.559Z,-3.41
2018-02-21T12:42:30.602Z,-3.44
2018-02-21T12:43:30.743Z,-3.18
2018-02-21T12:44:30.572Z,-3.31
2018-02-21T12:45:30.570Z,-3.21
2018-02-21T12:46:30.568Z,-3.23
2018-02-21T12:47:30.589Z,-3.3
2018-02-21T12:48:30.576Z,-3.06
2018-02-21T12:49:31.649Z,-3.12
2018-02-21T12:50:30.603Z,-3.2
2018-02-21T12:51:30.580Z,-3.2
2018-02-21T12:52:30.608Z,-3.22
2018-02-21T12:53:30.590Z,-3.34
2018-02-21T12:54:30.594Z,-3.27
2018-02-21T12:55:30.848Z,-3.21